sensor_id;sensor_type;location;lat;lon;timestamp;pressure;altitude;pressure_sealevel;temperature;humidity
46955;BME280;32708;51.212;6.788;2023-08-31T00:00:44;100267.28;;;17.78;100.00
46955;BME280;32708;51.212;6.788;2023-08-31T00:03:12;100272.13;;;17.88;100.00
46955;BME280;32708;51.212;6.788;2023-08-31T00:05:43;100265.41;;;17.86;100.00
46955;BME280;32708;51.212;6.788;2023-08-31T00:08:10;100266.69;;;17.96;100.00
46955;BME280;32708;51.212;6.788;2023-08-31T00:10:40;100261.22;;;18.03;100.00
46955;BME280;32708;51.212;6.788;2023-08-31T00:13:06;100270.16;;;17.52;100.00
46955;BME280;32708;51.212;6.788;2023-08-31T00:15:33;100270.44;;;17.77;100.00
46955;BME280;32708;51.212;6.788;2023-08-31T00:18:04;100271.81;;;17.94;100.00
46955;BME280;32708;51.212;6.788;2023-08-31T00:20:31;100272.41;;;17.76;100.00
46955;BME280;32708;51.212;6.788;2023-08-31T00:23:00;100270.09;;;18.26;100.00
46955;BME280;32708;51.212;6.788;2023-08-31T00:25:26;100261.56;;;18.46;100.00
46955;BME280;32708;51.212;6.788;2023-08-31T00:27:52;100258.47;;;18.54;100.00
46955;BME280;32708;51.212;6.788;2023-08-31T00:30:20;100255.25;;;18.45;100.00
46955;BME280;32708;51.212;6.788;2023-08-31T00:32:47;100257.13;;;18.34;100.00
46955;BME280;32708;51.212;6.788;2023-08-31T00:35:13;100260.41;;;18.47;100.00
46955;BME280;32708;51.212;6.788;2023-08-31T00:37:40;100249.19;;;18.29;100.00
46955;BME280;32708;51.212;6.788;2023-08-31T00:40:06;100261.13;;;18.36;100.00
46955;BME280;32708;51.212;6.788;2023-08-31T00:42:35;100254.56;;;18.59;100.00
46955;BME280;32708;51.212;6.788;2023-08-31T00:45:03;100256.09;;;18.56;100.00
46955;BME280;32708;51.212;6.788;2023-08-31T00:47:30;100253.88;;;18.73;100.00
46955;BME280;32708;51.212;6.788;2023-08-31T00:49:56;100266.88;;;18.17;100.00
46955;BME280;32708;51.212;6.788;2023-08-31T00:52:22;100266.50;;;18.66;100.00
46955;BME280;32708;51.212;6.788;2023-08-31T00:54:52;100275.19;;;18.21;100.00
46955;BME280;32708;51.212;6.788;2023-08-31T00:57:18;100273.03;;;18.48;100.00
46955;BME280;32708;51.212;6.788;2023-08-31T00:59:44;100276.47;;;18.30;100.00
46955;BME280;32708;51.212;6.788;2023-08-31T01:02:24;100275.00;;;18.43;100.00
46955;BME280;32708;51.212;6.788;2023-08-31T01:05:42;100266.13;;;18.24;100.00
46955;BME280;32708;51.212;6.788;2023-08-31T01:08:37;100272.00;;;17.74;100.00
46955;BME280;32708;51.212;6.788;2023-08-31T01:14:16;100272.78;;;17.75;100.00
46955;BME280;32708;51.212;6.788;2023-08-31T01:16:48;100260.75;;;17.94;100.00
46955;BME280;32708;51.212;6.788;2023-08-31T01:19:51;100271.72;;;17.86;100.00
46955;BME280;32708;51.212;6.788;2023-08-31T01:22:39;100265.84;;;17.92;100.00
46955;BME280;32708;51.212;6.788;2023-08-31T01:25:08;100277.25;;;17.53;100.00
46955;BME280;32708;51.212;6.788;2023-08-31T01:27:37;100277.09;;;17.39;100.00
46955;BME280;32708;51.212;6.788;2023-08-31T01:30:05;100274.13;;;17.54;100.00
46955;BME280;32708;51.212;6.788;2023-08-31T01:32:32;100276.94;;;17.58;100.00
46955;BME280;32708;51.212;6.788;2023-08-31T01:35:02;100272.56;;;17.57;100.00
46955;BME280;32708;51.212;6.788;2023-08-31T01:40:15;100272.03;;;17.44;100.00
46955;BME280;32708;51.212;6.788;2023-08-31T01:42:47;100286.63;;;17.45;100.00
46955;BME280;32708;51.212;6.788;2023-08-31T01:45:19;100279.88;;;17.42;100.00
46955;BME280;32708;51.212;6.788;2023-08-31T01:47:47;100282.53;;;17.31;100.00
46955;BME280;32708;51.212;6.788;2023-08-31T01:50:13;100285.91;;;17.51;100.00
46955;BME280;32708;51.212;6.788;2023-08-31T01:52:39;100284.97;;;17.40;100.00
46955;BME280;32708;51.212;6.788;2023-08-31T01:55:06;100295.66;;;17.12;100.00
46955;BME280;32708;51.212;6.788;2023-08-31T01:57:33;100285.19;;;17.24;100.00
46955;BME280;32708;51.212;6.788;2023-08-31T02:00:10;100298.41;;;17.42;100.00
46955;BME280;32708;51.212;6.788;2023-08-31T02:02:42;100297.81;;;16.95;100.00
46955;BME280;32708;51.212;6.788;2023-08-31T02:05:09;100299.88;;;17.02;100.00
46955;BME280;32708;51.212;6.788;2023-08-31T02:07:36;100298.50;;;17.19;100.00
46955;BME280;32708;51.212;6.788;2023-08-31T02:10:03;100296.22;;;16.94;100.00
46955;BME280;32708;51.212;6.788;2023-08-31T02:12:35;100304.41;;;16.64;100.00
46955;BME280;32708;51.212;6.788;2023-08-31T02:15:07;100304.34;;;16.84;100.00
46955;BME280;32708;51.212;6.788;2023-08-31T02:17:36;100306.19;;;16.76;100.00
46955;BME280;32708;51.212;6.788;2023-08-31T02:20:03;100307.88;;;16.84;100.00
46955;BME280;32708;51.212;6.788;2023-08-31T02:22:36;100299.34;;;16.93;100.00
46955;BME280;32708;51.212;6.788;2023-08-31T02:25:02;100302.81;;;16.63;100.00
46955;BME280;32708;51.212;6.788;2023-08-31T02:27:29;100304.94;;;17.00;100.00
46955;BME280;32708;51.212;6.788;2023-08-31T02:29:55;100303.66;;;16.67;100.00
46955;BME280;32708;51.212;6.788;2023-08-31T02:32:21;100303.25;;;16.92;100.00
46955;BME280;32708;51.212;6.788;2023-08-31T02:34:47;100295.25;;;16.83;100.00
46955;BME280;32708;51.212;6.788;2023-08-31T02:37:13;100299.63;;;16.61;100.00
46955;BME280;32708;51.212;6.788;2023-08-31T02:39:39;100299.03;;;16.71;100.00
46955;BME280;32708;51.212;6.788;2023-08-31T02:42:06;100298.81;;;16.84;100.00
46955;BME280;32708;51.212;6.788;2023-08-31T02:44:33;100295.00;;;16.65;100.00
46955;BME280;32708;51.212;6.788;2023-08-31T02:47:00;100299.09;;;16.52;100.00
46955;BME280;32708;51.212;6.788;2023-08-31T02:49:26;100300.28;;;16.77;100.00
46955;BME280;32708;51.212;6.788;2023-08-31T02:51:52;100299.63;;;16.61;100.00
46955;BME280;32708;51.212;6.788;2023-08-31T02:54:18;100300.31;;;16.55;100.00
46955;BME280;32708;51.212;6.788;2023-08-31T02:56:45;100296.78;;;16.54;100.00
46955;BME280;32708;51.212;6.788;2023-08-31T02:59:11;100292.13;;;16.58;100.00
46955;BME280;32708;51.212;6.788;2023-08-31T03:01:39;100279.91;;;16.82;100.00
46955;BME280;32708;51.212;6.788;2023-08-31T03:04:05;100294.75;;;16.51;100.00
46955;BME280;32708;51.212;6.788;2023-08-31T03:06:35;100291.72;;;16.83;100.00
46955;BME280;32708;51.212;6.788;2023-08-31T03:09:01;100293.31;;;16.84;100.00
46955;BME280;32708;51.212;6.788;2023-08-31T03:11:28;100301.59;;;16.61;100.00
46955;BME280;32708;51.212;6.788;2023-08-31T03:13:54;100296.94;;;16.65;100.00
46955;BME280;32708;51.212;6.788;2023-08-31T03:16:20;100292.31;;;16.46;100.00
46955;BME280;32708;51.212;6.788;2023-08-31T03:18:46;100298.47;;;16.62;100.00
46955;BME280;32708;51.212;6.788;2023-08-31T03:21:12;100296.63;;;16.70;100.00
46955;BME280;32708;51.212;6.788;2023-08-31T03:23:38;100295.00;;;16.65;100.00
46955;BME280;32708;51.212;6.788;2023-08-31T03:26:09;100295.59;;;16.55;100.00
46955;BME280;32708;51.212;6.788;2023-08-31T03:28:35;100302.94;;;16.70;100.00
46955;BME280;32708;51.212;6.788;2023-08-31T03:31:01;100301.75;;;16.45;100.00
46955;BME280;32708;51.212;6.788;2023-08-31T03:33:28;100310.34;;;16.17;100.00
46955;BME280;32708;51.212;6.788;2023-08-31T03:36:01;100314.44;;;16.27;100.00
46955;BME280;32708;51.212;6.788;2023-08-31T03:38:28;100309.50;;;16.62;100.00
46955;BME280;32708;51.212;6.788;2023-08-31T03:40:55;100319.38;;;16.40;100.00
46955;BME280;32708;51.212;6.788;2023-08-31T03:43:22;100313.69;;;16.52;100.00
46955;BME280;32708;51.212;6.788;2023-08-31T03:45:48;100319.34;;;16.37;100.00
46955;BME280;32708;51.212;6.788;2023-08-31T03:48:15;100311.84;;;16.60;100.00
46955;BME280;32708;51.212;6.788;2023-08-31T03:50:41;100308.84;;;16.46;100.00
46955;BME280;32708;51.212;6.788;2023-08-31T03:53:07;100300.53;;;16.69;100.00
46955;BME280;32708;51.212;6.788;2023-08-31T03:55:35;100300.75;;;16.57;100.00
46955;BME280;32708;51.212;6.788;2023-08-31T03:58:02;100298.63;;;16.46;100.00
46955;BME280;32708;51.212;6.788;2023-08-31T04:00:29;100307.25;;;16.45;100.00
46955;BME280;32708;51.212;6.788;2023-08-31T04:02:55;100310.16;;;16.29;100.00
46955;BME280;32708;51.212;6.788;2023-08-31T04:05:22;100313.81;;;16.14;100.00
46955;BME280;32708;51.212;6.788;2023-08-31T04:07:49;100312.16;;;16.32;100.00
46955;BME280;32708;51.212;6.788;2023-08-31T04:10:15;100311.31;;;16.51;100.00
46955;BME280;32708;51.212;6.788;2023-08-31T04:12:41;100314.88;;;16.55;100.00
46955;BME280;32708;51.212;6.788;2023-08-31T04:15:10;100321.97;;;16.30;100.00
46955;BME280;32708;51.212;6.788;2023-08-31T04:17:38;100313.50;;;16.65;100.00
46955;BME280;32708;51.212;6.788;2023-08-31T04:20:05;100318.44;;;16.56;100.00
46955;BME280;32708;51.212;6.788;2023-08-31T04:22:31;100323.84;;;16.48;100.00
46955;BME280;32708;51.212;6.788;2023-08-31T04:24:58;100316.81;;;16.74;100.00
46955;BME280;32708;51.212;6.788;2023-08-31T04:27:24;100326.03;;;16.62;100.00
46955;BME280;32708;51.212;6.788;2023-08-31T04:29:50;100318.41;;;16.52;100.00
46955;BME280;32708;51.212;6.788;2023-08-31T04:32:16;100321.56;;;16.54;100.00
46955;BME280;32708;51.212;6.788;2023-08-31T04:34:42;100331.50;;;16.59;100.00
46955;BME280;32708;51.212;6.788;2023-08-31T04:37:08;100347.81;;;16.44;100.00
46955;BME280;32708;51.212;6.788;2023-08-31T04:39:35;100340.44;;;16.52;100.00
46955;BME280;32708;51.212;6.788;2023-08-31T04:42:01;100349.28;;;16.38;100.00
46955;BME280;32708;51.212;6.788;2023-08-31T04:44:27;100348.03;;;16.36;100.00
46955;BME280;32708;51.212;6.788;2023-08-31T04:46:53;100345.88;;;16.48;100.00
46955;BME280;32708;51.212;6.788;2023-08-31T04:49:20;100353.28;;;16.21;100.00
46955;BME280;32708;51.212;6.788;2023-08-31T04:51:47;100357.56;;;16.19;100.00
46955;BME280;32708;51.212;6.788;2023-08-31T04:54:13;100349.22;;;16.58;100.00
46955;BME280;32708;51.212;6.788;2023-08-31T04:56:39;100348.66;;;16.71;100.00
46955;BME280;32708;51.212;6.788;2023-08-31T04:59:05;100356.59;;;16.54;100.00
46955;BME280;32708;51.212;6.788;2023-08-31T05:01:31;100353.28;;;16.67;100.00
46955;BME280;32708;51.212;6.788;2023-08-31T05:03:57;100355.50;;;16.58;100.00
46955;BME280;32708;51.212;6.788;2023-08-31T05:06:24;100356.63;;;16.31;100.00
46955;BME280;32708;51.212;6.788;2023-08-31T05:08:50;100349.69;;;16.40;100.00
46955;BME280;32708;51.212;6.788;2023-08-31T05:11:17;100365.69;;;16.31;100.00
46955;BME280;32708;51.212;6.788;2023-08-31T05:13:43;100366.34;;;16.70;100.00
46955;BME280;32708;51.212;6.788;2023-08-31T05:16:09;100361.50;;;16.64;100.00
46955;BME280;32708;51.212;6.788;2023-08-31T05:18:37;100364.28;;;16.87;100.00
46955;BME280;32708;51.212;6.788;2023-08-31T05:21:04;100376.59;;;16.70;100.00
46955;BME280;32708;51.212;6.788;2023-08-31T05:23:30;100379.28;;;16.66;100.00
46955;BME280;32708;51.212;6.788;2023-08-31T05:25:57;100388.50;;;16.55;100.00
46955;BME280;32708;51.212;6.788;2023-08-31T05:28:26;100386.28;;;16.64;100.00
46955;BME280;32708;51.212;6.788;2023-08-31T05:30:56;100392.81;;;16.52;100.00
46955;BME280;32708;51.212;6.788;2023-08-31T05:33:24;100395.69;;;16.59;100.00
46955;BME280;32708;51.212;6.788;2023-08-31T05:35:55;100388.44;;;16.97;100.00
46955;BME280;32708;51.212;6.788;2023-08-31T05:38:21;100389.44;;;17.12;100.00
46955;BME280;32708;51.212;6.788;2023-08-31T05:40:48;100401.56;;;17.03;100.00
46955;BME280;32708;51.212;6.788;2023-08-31T05:43:16;100389.44;;;17.38;100.00
46955;BME280;32708;51.212;6.788;2023-08-31T05:45:42;100404.47;;;16.88;100.00
46955;BME280;32708;51.212;6.788;2023-08-31T05:48:09;100395.66;;;17.05;100.00
46955;BME280;32708;51.212;6.788;2023-08-31T05:50:35;100389.72;;;17.29;100.00
46955;BME280;32708;51.212;6.788;2023-08-31T05:53:04;100395.94;;;17.53;100.00
46955;BME280;32708;51.212;6.788;2023-08-31T05:55:31;100395.19;;;18.20;100.00
46955;BME280;32708;51.212;6.788;2023-08-31T05:57:58;100393.84;;;18.43;100.00
46955;BME280;32708;51.212;6.788;2023-08-31T06:00:24;100379.00;;;19.10;100.00
46955;BME280;32708;51.212;6.788;2023-08-31T06:02:51;100385.91;;;18.79;100.00
46955;BME280;32708;51.212;6.788;2023-08-31T06:05:17;100398.16;;;18.41;100.00
46955;BME280;32708;51.212;6.788;2023-08-31T06:07:44;100395.84;;;18.47;100.00
46955;BME280;32708;51.212;6.788;2023-08-31T06:10:10;100406.84;;;18.39;100.00
46955;BME280;32708;51.212;6.788;2023-08-31T06:12:37;100408.50;;;18.10;100.00
46955;BME280;32708;51.212;6.788;2023-08-31T06:15:03;100401.88;;;19.04;100.00
46955;BME280;32708;51.212;6.788;2023-08-31T06:17:30;100394.72;;;19.61;100.00
46955;BME280;32708;51.212;6.788;2023-08-31T06:19:56;100380.75;;;20.77;100.00
46955;BME280;32708;51.212;6.788;2023-08-31T06:22:22;100377.53;;;21.17;100.00
46955;BME280;32708;51.212;6.788;2023-08-31T06:24:50;100383.53;;;20.59;100.00
46955;BME280;32708;51.212;6.788;2023-08-31T06:27:18;100378.91;;;21.93;99.63
46955;BME280;32708;51.212;6.788;2023-08-31T06:29:44;100378.38;;;20.89;100.00
46955;BME280;32708;51.212;6.788;2023-08-31T06:32:10;100381.53;;;21.06;100.00
46955;BME280;32708;51.212;6.788;2023-08-31T06:34:36;100373.19;;;22.22;95.68
46955;BME280;32708;51.212;6.788;2023-08-31T06:37:02;100375.97;;;22.22;97.02
46955;BME280;32708;51.212;6.788;2023-08-31T06:39:29;100378.63;;;22.40;91.20
46955;BME280;32708;51.212;6.788;2023-08-31T06:41:55;100376.53;;;21.85;94.86
46955;BME280;32708;51.212;6.788;2023-08-31T06:44:30;100384.38;;;22.08;94.63
46955;BME280;32708;51.212;6.788;2023-08-31T06:46:56;100407.28;;;21.21;100.00
46955;BME280;32708;51.212;6.788;2023-08-31T06:49:23;100388.91;;;21.69;97.56
46955;BME280;32708;51.212;6.788;2023-08-31T06:51:49;100395.94;;;21.95;95.04
46955;BME280;32708;51.212;6.788;2023-08-31T06:54:15;100378.16;;;23.38;83.96
46955;BME280;32708;51.212;6.788;2023-08-31T06:56:42;100387.78;;;22.85;89.79
46955;BME280;32708;51.212;6.788;2023-08-31T06:59:14;100385.50;;;23.21;86.05
46955;BME280;32708;51.212;6.788;2023-08-31T07:01:42;100377.69;;;23.81;81.64
46955;BME280;32708;51.212;6.788;2023-08-31T07:04:11;100390.66;;;23.95;82.61
46955;BME280;32708;51.212;6.788;2023-08-31T07:06:38;100386.22;;;23.67;84.39
46955;BME280;32708;51.212;6.788;2023-08-31T07:09:04;100382.47;;;24.65;77.80
46955;BME280;32708;51.212;6.788;2023-08-31T07:11:38;100380.13;;;24.36;78.05
46955;BME280;32708;51.212;6.788;2023-08-31T07:14:04;100396.91;;;24.02;82.51
46955;BME280;32708;51.212;6.788;2023-08-31T07:16:30;100402.47;;;23.34;84.09
46955;BME280;32708;51.212;6.788;2023-08-31T07:19:03;100404.44;;;23.37;83.22
46955;BME280;32708;51.212;6.788;2023-08-31T07:21:32;100408.22;;;22.68;86.12
46955;BME280;32708;51.212;6.788;2023-08-31T07:23:58;100417.75;;;22.70;89.84
46955;BME280;32708;51.212;6.788;2023-08-31T07:26:24;100418.53;;;23.19;86.39
46955;BME280;32708;51.212;6.788;2023-08-31T07:28:50;100403.47;;;23.88;80.60
46955;BME280;32708;51.212;6.788;2023-08-31T07:31:16;100399.66;;;24.06;78.53
46955;BME280;32708;51.212;6.788;2023-08-31T07:33:43;100399.66;;;24.36;78.35
46955;BME280;32708;51.212;6.788;2023-08-31T07:36:09;100406.25;;;24.96;74.38
46955;BME280;32708;51.212;6.788;2023-08-31T07:38:35;100418.22;;;24.47;77.39
46955;BME280;32708;51.212;6.788;2023-08-31T07:41:02;100415.91;;;24.92;73.33
46955;BME280;32708;51.212;6.788;2023-08-31T07:43:28;100423.31;;;23.22;82.20
46955;BME280;32708;51.212;6.788;2023-08-31T07:45:55;100433.56;;;23.70;82.28
46955;BME280;32708;51.212;6.788;2023-08-31T07:48:21;100425.22;;;25.09;74.70
46955;BME280;32708;51.212;6.788;2023-08-31T07:50:47;100439.22;;;23.63;82.10
46955;BME280;32708;51.212;6.788;2023-08-31T07:53:15;100439.19;;;24.01;81.71
46955;BME280;32708;51.212;6.788;2023-08-31T07:55:41;100427.34;;;24.51;78.74
46955;BME280;32708;51.212;6.788;2023-08-31T07:58:08;100444.34;;;23.68;82.86
46955;BME280;32708;51.212;6.788;2023-08-31T08:00:34;100434.78;;;24.30;78.71
46955;BME280;32708;51.212;6.788;2023-08-31T08:03:00;100431.13;;;25.58;75.59
46955;BME280;32708;51.212;6.788;2023-08-31T08:05:27;100433.53;;;25.12;73.37
46955;BME280;32708;51.212;6.788;2023-08-31T08:07:53;100440.34;;;25.11;76.39
46955;BME280;32708;51.212;6.788;2023-08-31T08:10:20;100436.50;;;25.02;74.75
46955;BME280;32708;51.212;6.788;2023-08-31T08:12:46;100454.56;;;23.78;81.55
46955;BME280;32708;51.212;6.788;2023-08-31T08:15:13;100440.66;;;24.09;80.26
46955;BME280;32708;51.212;6.788;2023-08-31T08:17:39;100451.50;;;24.00;80.66
46955;BME280;32708;51.212;6.788;2023-08-31T08:20:07;100456.97;;;24.10;80.61
46955;BME280;32708;51.212;6.788;2023-08-31T08:22:33;100439.44;;;25.18;74.32
46955;BME280;32708;51.212;6.788;2023-08-31T08:25:00;100453.50;;;25.34;74.54
46955;BME280;32708;51.212;6.788;2023-08-31T08:27:27;100454.69;;;25.57;75.09
46955;BME280;32708;51.212;6.788;2023-08-31T08:29:53;100441.13;;;26.15;69.06
46955;BME280;32708;51.212;6.788;2023-08-31T08:32:19;100442.63;;;27.08;65.47
46955;BME280;32708;51.212;6.788;2023-08-31T08:34:45;100442.00;;;27.46;61.98
46955;BME280;32708;51.212;6.788;2023-08-31T08:37:12;100443.03;;;27.06;61.99
46955;BME280;32708;51.212;6.788;2023-08-31T08:39:38;100448.22;;;26.39;64.79
46955;BME280;32708;51.212;6.788;2023-08-31T08:42:06;100449.31;;;26.25;65.42
46955;BME280;32708;51.212;6.788;2023-08-31T08:44:35;100454.03;;;25.02;72.67
46955;BME280;32708;51.212;6.788;2023-08-31T08:47:02;100453.06;;;26.55;67.24
46955;BME280;32708;51.212;6.788;2023-08-31T08:49:34;100459.34;;;25.63;70.46
46955;BME280;32708;51.212;6.788;2023-08-31T08:52:03;100455.81;;;26.02;68.62
46955;BME280;32708;51.212;6.788;2023-08-31T08:54:29;100457.72;;;25.86;67.91
46955;BME280;32708;51.212;6.788;2023-08-31T08:56:56;100463.41;;;26.02;66.43
46955;BME280;32708;51.212;6.788;2023-08-31T08:59:24;100463.97;;;26.49;64.33
46955;BME280;32708;51.212;6.788;2023-08-31T09:01:51;100461.94;;;26.14;64.19
46955;BME280;32708;51.212;6.788;2023-08-31T09:04:17;100459.53;;;26.16;65.33
46955;BME280;32708;51.212;6.788;2023-08-31T09:06:45;100455.94;;;25.95;65.22
46955;BME280;32708;51.212;6.788;2023-08-31T09:09:11;100469.56;;;25.30;70.12
46955;BME280;32708;51.212;6.788;2023-08-31T09:11:37;100460.03;;;27.15;58.44
46955;BME280;32708;51.212;6.788;2023-08-31T09:14:19;100466.75;;;25.07;64.94
46955;BME280;32708;51.212;6.788;2023-08-31T09:16:51;100465.25;;;24.98;65.46
46955;BME280;32708;51.212;6.788;2023-08-31T09:19:22;100477.75;;;24.67;69.87
46955;BME280;32708;51.212;6.788;2023-08-31T09:21:52;100487.69;;;24.07;73.79
46955;BME280;32708;51.212;6.788;2023-08-31T09:24:21;100474.22;;;24.32;70.79
46955;BME280;32708;51.212;6.788;2023-08-31T09:26:56;100475.41;;;24.62;69.34
46955;BME280;32708;51.212;6.788;2023-08-31T09:29:23;100482.06;;;23.76;73.50
46955;BME280;32708;51.212;6.788;2023-08-31T09:31:50;100490.69;;;23.89;75.75
46955;BME280;32708;51.212;6.788;2023-08-31T09:34:17;100487.97;;;23.41;80.57
46955;BME280;32708;51.212;6.788;2023-08-31T09:36:44;100477.38;;;24.38;72.00
46955;BME280;32708;51.212;6.788;2023-08-31T09:39:13;100487.56;;;23.83;74.99
46955;BME280;32708;51.212;6.788;2023-08-31T09:41:55;100480.41;;;24.74;68.75
46955;BME280;32708;51.212;6.788;2023-08-31T09:44:21;100488.47;;;24.07;71.59
46955;BME280;32708;51.212;6.788;2023-08-31T09:46:49;100489.63;;;23.34;77.52
46955;BME280;32708;51.212;6.788;2023-08-31T09:49:17;100482.84;;;22.91;79.48
46955;BME280;32708;51.212;6.788;2023-08-31T09:51:49;100481.06;;;23.56;76.03
46955;BME280;32708;51.212;6.788;2023-08-31T09:54:19;100475.06;;;24.29;71.05
46955;BME280;32708;51.212;6.788;2023-08-31T09:56:48;100471.56;;;25.30;66.42
46955;BME280;32708;51.212;6.788;2023-08-31T09:59:17;100471.63;;;24.99;66.65
46955;BME280;32708;51.212;6.788;2023-08-31T10:01:46;100468.94;;;25.62;63.66
46955;BME280;32708;51.212;6.788;2023-08-31T10:04:13;100455.59;;;25.93;59.49
46955;BME280;32708;51.212;6.788;2023-08-31T10:06:42;100481.34;;;24.91;68.69
46955;BME280;32708;51.212;6.788;2023-08-31T10:09:09;100487.84;;;23.55;75.90
46955;BME280;32708;51.212;6.788;2023-08-31T10:11:38;100482.78;;;23.43;75.43
46955;BME280;32708;51.212;6.788;2023-08-31T10:14:07;100504.16;;;23.12;77.55
46955;BME280;32708;51.212;6.788;2023-08-31T10:16:39;100490.06;;;22.77;80.65
46955;BME280;32708;51.212;6.788;2023-08-31T10:19:07;100494.47;;;22.71;82.81
46955;BME280;32708;51.212;6.788;2023-08-31T10:21:33;100491.63;;;22.82;82.39
46955;BME280;32708;51.212;6.788;2023-08-31T10:24:00;100498.16;;;22.58;83.24
46955;BME280;32708;51.212;6.788;2023-08-31T10:26:28;100495.53;;;23.44;80.55
46955;BME280;32708;51.212;6.788;2023-08-31T10:28:56;100492.63;;;23.92;76.39
46955;BME280;32708;51.212;6.788;2023-08-31T10:31:27;100491.13;;;23.43;77.46
46955;BME280;32708;51.212;6.788;2023-08-31T10:34:02;100488.28;;;23.05;79.45
46955;BME280;32708;51.212;6.788;2023-08-31T10:36:43;100487.44;;;23.12;80.10
46955;BME280;32708;51.212;6.788;2023-08-31T10:39:15;100484.84;;;22.90;80.05
46955;BME280;32708;51.212;6.788;2023-08-31T10:41:52;100488.09;;;23.30;79.47
46955;BME280;32708;51.212;6.788;2023-08-31T10:44:24;100483.91;;;23.08;78.76
46955;BME280;32708;51.212;6.788;2023-08-31T10:46:52;100490.38;;;24.14;74.75
46955;BME280;32708;51.212;6.788;2023-08-31T10:49:22;100480.84;;;23.77;74.89
46955;BME280;32708;51.212;6.788;2023-08-31T10:52:23;100491.25;;;24.41;72.51
46955;BME280;32708;51.212;6.788;2023-08-31T10:55:04;100472.25;;;24.33;68.89
46955;BME280;32708;51.212;6.788;2023-08-31T10:57:31;100471.50;;;25.10;64.80
46955;BME280;32708;51.212;6.788;2023-08-31T10:59:57;100474.84;;;24.74;63.83
46955;BME280;32708;51.212;6.788;2023-08-31T11:02:37;100473.09;;;24.57;62.56
46955;BME280;32708;51.212;6.788;2023-08-31T11:05:13;100472.69;;;24.58;61.50
46955;BME280;32708;51.212;6.788;2023-08-31T11:07:42;100480.53;;;23.30;69.67
46955;BME280;32708;51.212;6.788;2023-08-31T11:12:49;100469.50;;;23.16;71.96
46955;BME280;32708;51.212;6.788;2023-08-31T11:15:24;100478.78;;;22.99;75.12
46955;BME280;32708;51.212;6.788;2023-08-31T11:17:55;100482.53;;;23.26;74.84
46955;BME280;32708;51.212;6.788;2023-08-31T11:20:27;100483.34;;;23.27;75.55
46955;BME280;32708;51.212;6.788;2023-08-31T11:22:54;100467.16;;;23.11;75.60
46955;BME280;32708;51.212;6.788;2023-08-31T11:25:22;100469.97;;;23.49;74.99
46955;BME280;32708;51.212;6.788;2023-08-31T11:28:01;100466.16;;;22.84;77.16
46955;BME280;32708;51.212;6.788;2023-08-31T11:30:32;100484.16;;;22.68;78.09
46955;BME280;32708;51.212;6.788;2023-08-31T11:33:08;100473.88;;;23.17;75.51
46955;BME280;32708;51.212;6.788;2023-08-31T11:35:39;100479.13;;;23.91;75.59
46955;BME280;32708;51.212;6.788;2023-08-31T11:38:09;100470.38;;;24.80;71.14
46955;BME280;32708;51.212;6.788;2023-08-31T11:40:37;100468.41;;;25.04;72.99
46955;BME280;32708;51.212;6.788;2023-08-31T11:43:05;100471.34;;;24.39;73.39
46955;BME280;32708;51.212;6.788;2023-08-31T11:45:34;100466.38;;;25.51;66.92
46955;BME280;32708;51.212;6.788;2023-08-31T11:48:03;100447.56;;;25.32;64.10
46955;BME280;32708;51.212;6.788;2023-08-31T11:50:30;100445.38;;;25.43;66.09
46955;BME280;32708;51.212;6.788;2023-08-31T11:52:57;100461.88;;;24.60;71.76
46955;BME280;32708;51.212;6.788;2023-08-31T11:55:24;100446.69;;;24.88;67.18
46955;BME280;32708;51.212;6.788;2023-08-31T11:57:52;100438.78;;;24.83;66.58
46955;BME280;32708;51.212;6.788;2023-08-31T12:00:21;100450.28;;;25.36;68.24
46955;BME280;32708;51.212;6.788;2023-08-31T12:03:04;100468.91;;;24.11;73.48
46955;BME280;32708;51.212;6.788;2023-08-31T12:05:45;100461.50;;;23.63;76.06
46955;BME280;32708;51.212;6.788;2023-08-31T12:08:12;100476.03;;;24.15;75.91
46955;BME280;32708;51.212;6.788;2023-08-31T12:10:42;100467.50;;;23.96;77.53
46955;BME280;32708;51.212;6.788;2023-08-31T12:13:10;100452.88;;;24.76;72.35
46955;BME280;32708;51.212;6.788;2023-08-31T12:15:37;100459.84;;;25.15;71.59
46955;BME280;32708;51.212;6.788;2023-08-31T12:18:11;100446.81;;;24.81;68.41
46955;BME280;32708;51.212;6.788;2023-08-31T12:20:52;100447.84;;;25.38;66.41
46955;BME280;32708;51.212;6.788;2023-08-31T12:23:19;100448.19;;;25.83;62.29
46955;BME280;32708;51.212;6.788;2023-08-31T12:25:53;100448.25;;;25.16;69.57
46955;BME280;32708;51.212;6.788;2023-08-31T12:28:23;100439.19;;;25.09;63.74
46955;BME280;32708;51.212;6.788;2023-08-31T12:30:54;100441.34;;;26.24;58.13
46955;BME280;32708;51.212;6.788;2023-08-31T12:33:23;100435.44;;;26.38;56.74
46955;BME280;32708;51.212;6.788;2023-08-31T12:35:50;100433.66;;;25.72;58.41
46955;BME280;32708;51.212;6.788;2023-08-31T12:38:16;100439.03;;;25.83;58.23
46955;BME280;32708;51.212;6.788;2023-08-31T12:40:44;100423.84;;;25.40;55.68
46955;BME280;32708;51.212;6.788;2023-08-31T12:43:10;100431.28;;;25.04;56.50
46955;BME280;32708;51.212;6.788;2023-08-31T12:45:39;100421.06;;;24.43;58.15
46955;BME280;32708;51.212;6.788;2023-08-31T12:48:05;100418.97;;;25.24;55.80
46955;BME280;32708;51.212;6.788;2023-08-31T12:50:31;100411.22;;;25.75;54.16
46955;BME280;32708;51.212;6.788;2023-08-31T12:52:58;100425.41;;;24.71;59.60
46955;BME280;32708;51.212;6.788;2023-08-31T12:55:24;100424.38;;;24.85;58.43
46955;BME280;32708;51.212;6.788;2023-08-31T12:57:50;100428.03;;;25.09;56.30
46955;BME280;32708;51.212;6.788;2023-08-31T13:00:17;100413.97;;;25.12;56.63